Time;durP1;ratioP1;P1;durP2;ratioP2;P2;SDS_P1;SDS_P2;PMS_P1;PMS_P2;Temp;Humidity;BMP_temperature;BMP_pressure;BME280_temperature;BME280_humidity;BME280_pressure;Samples;Min_cycle;Max_cycle;Signal;HPM_P1;HPM_P2
2022/01/25 00:10:26;;;;;;;25.48;13.95;;;;;;;-1.05;100.00;102101.66;20906968;28;20438;-75
2022/01/25 00:41:00;;;;;;;35.20;16.45;;;;;;;-1.25;100.00;102099.59;20902987;28;20049;-75
2022/01/25 00:51:24;;;;;;;29.00;15.27;;;;;;;-1.35;100.00;102095.59;20917191;28;20103;-74
2022/01/25 01:01:27;;;;;;;31.37;14.70;;;;;;;-1.43;100.00;102097.72;20930507;28;20073;-74
2022/01/25 01:11:37;;;;;;;33.72;15.52;;;;;;;-1.51;100.00;102093.78;20921017;28;20053;-77
2022/01/25 01:32:12;;;;;;;33.05;16.50;;;;;;;-1.69;100.00;102103.81;20900338;28;20049;-75
2022/01/25 01:52:15;;;;;;;31.80;15.60;;;;;;;-1.76;100.00;102121.34;20911373;28;20489;-75
2022/01/25 02:02:17;;;;;;;33.92;15.98;;;;;;;-1.79;100.00;102119.47;20910544;28;20045;-77
2022/01/25 02:12:19;;;;;;;31.90;16.20;;;;;;;-1.84;100.00;102121.75;20909619;28;20402;-75
2022/01/25 02:22:30;;;;;;;36.53;18.92;;;;;;;-1.86;100.00;102125.91;20909603;28;20048;-75
2022/01/25 02:32:32;;;;;;;38.53;17.80;;;;;;;-1.94;100.00;102118.53;20907594;28;20049;-76
2022/01/25 02:42:33;;;;;;;36.72;18.98;;;;;;;-1.93;100.00;102100.66;20906603;28;20445;-75
2022/01/25 02:52:35;;;;;;;32.17;16.23;;;;;;;-1.97;100.00;102090.97;20906169;28;20098;-77
2022/01/25 03:02:37;;;;;;;35.08;16.90;;;;;;;-2.00;100.00;102084.78;20905307;28;20103;-76
2022/01/25 03:22:56;;;;;;;28.08;14.73;;;;;;;-2.19;100.00;102101.59;20905483;28;20667;-76
2022/01/25 03:32:57;;;;;;;33.05;16.17;;;;;;;-2.24;100.00;102099.53;20882552;28;20044;-75
2022/01/25 03:43:00;;;;;;;34.72;16.17;;;;;;;-2.34;100.00;102098.94;20903953;28;20102;-75
2022/01/25 03:53:01;;;;;;;37.13;17.30;;;;;;;-2.32;100.00;102106.72;20902350;28;20061;-79
2022/01/25 04:03:13;;;;;;;34.13;16.17;;;;;;;-2.38;100.00;102112.38;20899943;28;20045;-77
2022/01/25 04:13:15;;;;;;;33.00;15.65;;;;;;;-2.39;100.00;102112.28;20900696;28;20053;-75
2022/01/25 04:33:42;;;;;;;41.05;19.10;;;;;;;-2.53;100.00;102098.56;20925844;28;20107;-75
2022/01/25 04:54:14;;;;;;;35.05;16.20;;;;;;;-2.63;100.00;102088.50;20926960;28;20090;-76
2022/01/25 05:04:23;;;;;;;36.72;17.50;;;;;;;-2.56;100.00;102080.41;20926160;28;20048;-76
2022/01/25 05:14:32;;;;;;;62.00;25.33;;;;;;;-2.37;100.00;102085.91;20926822;28;20091;-76
2022/01/25 05:24:40;;;;;;;72.43;26.10;;;;;;;-2.39;100.00;102095.22;20934187;28;20703;-76
2022/01/25 05:34:41;;;;;;;64.85;22.50;;;;;;;-2.36;100.00;102092.81;20913914;28;20060;-75
2022/01/25 05:54:54;;;;;;;55.45;24.52;;;;;;;-2.48;100.00;102089.50;20908212;28;20044;-76
2022/01/25 06:04:55;;;;;;;48.42;22.25;;;;;;;-2.50;100.00;102103.88;20916248;28;20047;-77
2022/01/25 06:14:57;;;;;;;76.85;23.88;;;;;;;-2.60;100.00;102111.75;20910102;28;20098;-76
2022/01/25 06:24:59;;;;;;;61.63;24.15;;;;;;;-2.75;100.00;102121.03;20908732;28;20482;-76
2022/01/25 06:35:01;;;;;;;61.45;24.05;;;;;;;-2.79;100.00;102116.47;20909149;28;20114;-77
2022/01/25 06:45:12;;;;;;;56.00;23.88;;;;;;;-2.86;100.00;102126.34;20907424;28;20045;-76
2022/01/25 06:55:17;;;;;;;49.10;22.80;;;;;;;-2.80;100.00;102130.97;20908204;28;20473;-77
2022/01/25 07:05:18;;;;;;;47.42;21.83;;;;;;;-2.50;100.00;102136.31;20906453;28;20152;-77
2022/01/25 07:15:20;;;;;;;44.95;20.50;;;;;;;-2.33;100.00;102144.31;20907720;28;20098;-77
2022/01/25 07:25:21;;;;;;;52.75;20.88;;;;;;;-2.05;100.00;102148.66;20904644;28;20631;-76
2022/01/25 07:35:23;;;;;;;52.17;20.52;;;;;;;-1.81;100.00;102154.44;20902124;28;20072;-79
2022/01/25 07:45:28;;;;;;;60.03;25.60;;;;;;;-1.59;100.00;102147.25;20901022;28;20089;-77
2022/01/25 07:55:34;;;;;;;52.33;22.52;;;;;;;-1.42;100.00;102143.16;20882427;28;20064;-78
2022/01/25 08:05:35;;;;;;;55.20;23.92;;;;;;;-1.38;100.00;102146.81;20856135;28;20045;-78
2022/01/25 08:15:51;;;;;;;43.78;21.38;;;;;;;-1.24;100.00;102143.38;20842458;28;20057;-77
2022/01/25 08:26:05;;;;;;;;;;;;;;;-0.95;100.00;102155.41;20839320;28;20076;-78
2022/01/25 08:36:07;;;;;;;44.55;22.38;;;;;;;-0.88;100.00;102147.22;20830774;28;20015;-77
2022/01/25 08:46:24;;;;;;;49.65;21.95;;;;;;;-0.69;100.00;102138.91;20822298;28;20044;-77
2022/01/25 08:56:28;;;;;;;43.40;21.02;;;;;;;-0.56;100.00;102155.94;20877283;28;20049;-75
2022/01/25 09:06:47;;;;;;;43.63;21.38;;;;;;;-0.38;100.00;102157.00;20894831;28;20532;-73
2022/01/25 09:16:49;;;;;;;47.85;22.02;;;;;;;0.07;100.00;102167.19;20907963;28;20053;-76
2022/01/25 09:26:50;;;;;;;50.90;22.95;;;;;;;0.42;100.00;102167.41;20904870;28;20056;-76
2022/01/25 09:36:52;;;;;;;49.58;24.00;;;;;;;0.59;100.00;102155.44;20900986;28;20044;-77
2022/01/25 09:46:55;;;;;;;53.50;24.27;;;;;;;0.80;100.00;102149.63;20904118;28;20094;-76
2022/01/25 09:56:57;;;;;;;55.95;24.52;;;;;;;0.83;100.00;102155.81;20904939;28;20060;-73
2022/01/25 10:06:58;;;;;;;56.97;24.58;;;;;;;1.07;100.00;102160.47;20904448;28;20114;-74
2022/01/25 10:17:00;;;;;;;53.03;24.27;;;;;;;1.07;100.00;102168.22;20900311;28;20132;-75
2022/01/25 10:27:03;;;;;;;57.15;23.85;;;;;;;1.03;100.00;102165.47;20900180;28;20053;-74
2022/01/25 10:37:10;;;;;;;54.23;24.37;;;;;;;1.07;100.00;102160.47;20898595;28;20067;-74
2022/01/25 10:47:13;;;;;;;56.40;24.17;;;;;;;1.01;100.00;102161.06;20895132;28;20111;-75
2022/01/25 10:57:26;;;;;;;57.58;24.92;;;;;;;1.22;100.00;102164.72;20898900;28;20053;-74
2022/01/25 11:07:47;;;;;;;56.92;24.88;;;;;;;1.30;100.00;102159.06;20894604;28;20117;-73
2022/01/25 11:17:48;;;;;;;59.05;25.80;;;;;;;1.45;100.00;102167.56;20898779;28;20485;-73
2022/01/25 11:27:51;;;;;;;57.70;24.50;;;;;;;1.48;100.00;102147.94;20895782;28;20049;-73
2022/01/25 11:37:53;;;;;;;59.03;24.95;;;;;;;1.48;100.00;102152.22;20893736;28;20101;-73
2022/01/25 11:47:55;;;;;;;68.78;26.33;;;;;;;1.62;100.00;102138.28;20895716;28;20072;-71
2022/01/25 11:57:58;;;;;;;65.57;25.80;;;;;;;1.55;100.00;102138.81;20891762;28;20095;-70
2022/01/25 12:08:14;;;;;;;61.70;25.70;;;;;;;1.76;100.00;102126.91;20892254;28;20045;-70
2022/01/25 12:18:53;;;;;;;66.33;27.63;;;;;;;1.91;100.00;102120.72;20892297;28;20556;-70
2022/01/25 12:29:30;;;;;;;70.18;33.03;;;;;;;1.92;99.96;102107.88;20870963;28;20057;-69
2022/01/25 12:39:35;;;;;;;70.18;31.60;;;;;;;1.94;99.97;102103.66;20864946;28;20399;-70
2022/01/25 12:49:43;;;;;;;68.55;29.77;;;;;;;2.11;98.43;102094.13;20907285;28;20075;-70
2022/01/25 12:59:48;;;;;;;72.70;31.20;;;;;;;2.13;97.90;102087.31;20907362;28;20099;-69
2022/01/25 13:09:54;;;;;;;72.57;31.48;;;;;;;2.20;99.44;102081.59;20904199;28;20437;-69
2022/01/25 13:20:01;;;;;;;65.22;29.88;;;;;;;2.33;98.05;102077.88;20902515;28;20111;-70
2022/01/25 13:40:30;;;;;;;72.15;31.17;;;;;;;1.98;98.27;102068.53;20902123;28;20049;-69
2022/01/25 13:50:34;;;;;;;76.70;32.92;;;;;;;1.83;99.63;102075.59;20902073;28;20095;-69
2022/01/25 14:00:35;;;;;;;77.27;34.17;;;;;;;1.92;100.00;102061.41;20898788;28;20045;-69
2022/01/25 14:10:44;;;;;;;74.07;32.88;;;;;;;1.74;100.00;102066.59;20898312;28;20068;-70
2022/01/25 14:31:14;;;;;;;78.95;32.38;;;;;;;1.86;100.00;102055.03;20900348;28;20460;-69
2022/01/25 14:41:27;;;;;;;76.30;32.80;;;;;;;1.79;99.98;102052.19;20896303;28;20064;-69
2022/01/25 14:51:35;;;;;;;70.38;30.80;;;;;;;1.56;100.00;102060.56;20894432;28;20486;-69
2022/01/25 15:01:37;;;;;;;89.00;35.35;;;;;;;1.57;100.00;102072.63;20896941;28;20524;-69
2022/01/25 15:11:39;;;;;;;78.13;32.80;;;;;;;1.51;100.00;102080.09;20892599;28;20045;-69
2022/01/25 15:21:41;;;;;;;83.57;33.60;;;;;;;1.42;100.00;102083.13;20896345;28;20048;-69
2022/01/25 15:31:43;;;;;;;87.35;36.35;;;;;;;1.38;100.00;102082.88;20871666;28;20037;-69
2022/01/25 15:41:47;;;;;;;76.07;31.63;;;;;;;1.16;100.00;102088.72;20839199;28;20115;-69
2022/01/25 15:51:49;;;;;;;75.07;30.50;;;;;;;1.00;100.00;102097.34;20857677;28;20044;-69
2022/01/25 16:01:53;;;;;;;76.50;31.88;;;;;;;0.90;100.00;102080.53;20892693;28;20102;-68
2022/01/25 16:11:55;;;;;;;;;;;;;;;0.64;100.00;102076.66;20891974;28;20052;-69
2022/01/25 16:21:57;;;;;;;70.45;26.45;;;;;;;0.70;100.00;102082.13;20891453;28;19920;-69
2022/01/25 16:31:59;;;;;;;77.65;30.60;;;;;;;0.94;100.00;102084.16;20890304;28;20667;-69
2022/01/25 16:42:01;;;;;;;86.15;31.65;;;;;;;0.88;100.00;102083.88;20890668;28;20048;-70
2022/01/25 16:52:22;;;;;;;111.03;40.50;;;;;;;0.89;100.00;102101.09;20888863;28;20131;-69
2022/01/25 17:02:24;;;;;;;88.32;32.30;;;;;;;0.75;100.00;102096.13;20885864;28;20041;-69
2022/01/25 17:12:26;;;;;;;82.70;28.50;;;;;;;0.66;100.00;102100.81;20885053;28;20096;-68
2022/01/25 17:22:39;;;;;;;89.28;30.95;;;;;;;0.64;100.00;102094.69;20893479;28;20263;-68
2022/01/25 17:32:41;;;;;;;96.60;28.80;;;;;;;0.47;100.00;102096.38;20898009;28;20106;-68
2022/01/25 17:42:42;;;;;;;86.30;27.35;;;;;;;0.44;100.00;102098.81;20902033;28;20053;-68
2022/01/25 17:52:44;;;;;;;77.88;26.50;;;;;;;0.40;100.00;102111.47;20894184;28;20425;-68
2022/01/25 18:02:46;;;;;;;76.65;25.25;;;;;;;0.46;100.00;102106.63;20879395;28;20140;-68
2022/01/25 18:12:47;;;;;;;87.75;28.42;;;;;;;0.52;100.00;102112.97;20899654;28;20076;-68
2022/01/25 18:22:57;;;;;;;87.20;27.60;;;;;;;0.50;100.00;102105.97;20899338;28;20116;-68
2022/01/25 18:32:58;;;;;;;119.05;31.33;;;;;;;0.63;100.00;102108.41;20894575;28;20049;-68
2022/01/25 18:43:01;;;;;;;91.38;28.50;;;;;;;0.73;100.00;102113.22;20896266;28;20049;-69
2022/01/25 18:53:02;;;;;;;74.95;24.60;;;;;;;0.66;100.00;102105.97;20896648;28;20126;-68
2022/01/25 19:03:04;;;;;;;84.85;26.73;;;;;;;0.59;100.00;102109.03;20893634;28;20053;-68
2022/01/25 19:13:06;;;;;;;109.78;32.50;;;;;;;0.32;100.00;102117.88;20894567;28;20063;-68
2022/01/25 19:23:07;;;;;;;83.80;26.63;;;;;;;0.25;100.00;102109.84;20894265;28;20110;-69
2022/01/25 19:33:09;;;;;;;89.80;32.53;;;;;;;0.31;100.00;102106.69;20894270;28;20049;-68
2022/01/25 19:43:15;;;;;;;88.30;28.88;;;;;;;0.45;100.00;102104.84;20894247;28;20060;-69
2022/01/25 19:53:20;;;;;;;92.50;28.27;;;;;;;0.49;100.00;102101.63;20891310;28;20083;-69
2022/01/25 20:03:22;;;;;;;87.30;27.70;;;;;;;0.47;100.00;102091.22;20888123;28;20090;-68
2022/01/25 20:13:24;;;;;;;92.85;33.05;;;;;;;0.53;100.00;102093.25;20889152;28;20048;-69
2022/01/25 20:24:14;;;;;;;96.88;29.63;;;;;;;0.53;100.00;102088.09;20890478;28;20048;-69
2022/01/25 20:33:51;;;;;;;91.30;27.63;;;;;;;0.58;100.00;102085.78;20874066;28;20087;-69
2022/01/25 20:43:53;;;;;;;95.43;28.38;;;;;;;0.55;100.00;102089.06;20890832;28;20056;-68
2022/01/25 20:53:55;;;;;;;91.38;26.80;;;;;;;0.53;100.00;102082.97;20889385;28;20461;-68
2022/01/25 21:14:14;;;;;;;105.18;29.38;;;;;;;0.62;100.00;102061.91;20899548;28;20482;-68
2022/01/25 21:24:19;;;;;;;91.60;27.67;;;;;;;0.49;100.00;102061.28;20902036;28;20472;-69
2022/01/25 21:34:21;;;;;;;106.10;27.02;;;;;;;0.46;100.00;102071.41;20902610;28;20108;-68
2022/01/25 21:44:23;;;;;;;103.55;30.55;;;;;;;0.49;100.00;102069.03;20903093;28;20049;-69
2022/01/25 21:54:24;;;;;;;104.45;28.77;;;;;;;0.51;100.00;102072.53;20902832;28;20175;-69
2022/01/25 22:04:32;;;;;;;105.45;29.27;;;;;;;0.46;100.00;102078.28;20900669;28;20049;-69
2022/01/25 22:14:44;;;;;;;94.13;28.73;;;;;;;0.43;100.00;102078.09;20899257;28;20056;-69
2022/01/25 22:24:48;;;;;;;100.45;27.98;;;;;;;0.46;100.00;102080.84;20900575;28;20075;-70
2022/01/25 22:34:49;;;;;;;90.00;27.37;;;;;;;0.42;100.00;102069.50;20897344;28;20052;-70
2022/01/25 22:44:53;;;;;;;96.75;27.08;;;;;;;0.36;100.00;102070.88;20898871;28;20098;-70
2022/01/25 22:54:55;;;;;;;103.77;26.90;;;;;;;0.39;100.00;102063.31;20897439;28;20476;-70
2022/01/25 23:04:58;;;;;;;100.03;28.50;;;;;;;0.43;100.00;102062.63;20898894;28;20118;-70
2022/01/25 23:15:09;;;;;;;83.68;26.05;;;;;;;0.35;100.00;102064.84;20903026;28;20470;-70
2022/01/25 23:25:11;;;;;;;68.25;21.50;;;;;;;0.25;100.00;102084.06;20909944;28;20306;-71
2022/01/25 23:35:25;;;;;;;57.40;20.48;;;;;;;0.24;100.00;102077.16;20897300;28;20045;-71
2022/01/25 23:45:27;;;;;;;56.87;19.20;;;;;;;0.34;100.00;102075.94;20898493;28;20456;-71
